This is the latest recevied weather packets stored in our database for station/object YO4ISC-13. If no packets are shown the sender has not sent any weather packets the latest 10 day(s).
| Time | Temp. | Humidity | Pressure | Rain* | Wind** | Luminosity | Snow |
|---|---|---|---|---|---|---|---|
| 1777762801 | 4.44° C | 86% | 1022 hPa | - | - | - | - |
| 1777762202 | 4.44° C | 85% | 1022 hPa | - | - | - | - |
| 1777761602 | 4.44° C | 84% | 1023 hPa | - | - | - | - |
| 1777761002 | 5° C | 84% | 1023 hPa | - | - | - | - |
| 1777760402 | 5° C | 84% | 1023 hPa | - | - | - | - |
| 1777759802 | 5.56° C | 83% | 1023 hPa | - | - | - | - |
| 1777759202 | 6.67° C | 79% | 1023 hPa | - | - | - | - |
| 1777758602 | 7.78° C | 77% | 1023 hPa | - | - | - | - |
| 1777758002 | 7.78° C | 77% | 1023 hPa | - | - | - | - |
| 1777757402 | 7.78° C | 78% | 1023 hPa | - | - | - | - |
| 1777756802 | 7.78° C | 77% | 1023 hPa | - | - | - | - |
| 1777756201 | 7.78° C | 76% | 1023 hPa | - | - | - | - |
| 1777755602 | 7.22° C | 77% | 1023 hPa | - | - | - | - |
| 1777755001 | 7.78° C | 74% | 1023 hPa | - | - | - | - |
| 1777754402 | 7.78° C | 75% | 1023 hPa | - | - | - | - |
| 1777753802 | 7.78° C | 75% | 1023 hPa | - | - | - | - |
| 1777753201 | 7.22° C | 75% | 1023 hPa | - | - | - | - |
| 1777752602 | 7.22° C | 76% | 1023 hPa | - | - | - | - |
| 1777752001 | 7.22° C | 76% | 1023 hPa | - | - | - | - |
| 1777751402 | 7.78° C | 75% | 1023 hPa | - | - | - | - |
| 1777750801 | 7.22° C | 75% | 1023 hPa | - | - | - | - |
| 1777750202 | 6.67° C | 78% | 1023 hPa | - | - | - | - |
| 1777749601 | 6.11° C | 79% | 1023 hPa | - | - | - | - |
| 1777749002 | 6.11° C | 79% | 1023 hPa | - | - | - | - |
| 1777748402 | 6.67° C | 78% | 1023 hPa | - | - | - | - |
* Rain since midnight (hover to see other rain measurements)
** Current wind speed in m/s (hover to see current wind gust speed)